Time;durP1;ratioP1;P1;durP2;ratioP2;P2;SDS_P1;SDS_P2;PMS_P1;PMS_P2;Temp;Humidity;BMP_temperature;BMP_pressure;BME280_temperature;BME280_humidity;BME280_pressure;Samples;Min_cycle;Max_cycle;Signal;HPM_P1;HPM_P2
2021/01/26 00:00:16;;;;;;;10.95;8.15;;;23.30;48.70;;;;;;5118395;27;20112;-55
2021/01/26 00:02:42;;;;;;;16.05;8.50;;;23.30;48.70;;;;;;5134219;27;20031;-53
2021/01/26 00:05:10;;;;;;;12.60;8.70;;;23.30;48.70;;;;;;5121566;27;20035;-54
2021/01/26 00:07:36;;;;;;;16.48;8.70;;;23.30;48.80;;;;;;5125249;27;20023;-54
2021/01/26 00:10:04;;;;;;;13.02;7.85;;;23.20;48.80;;;;;;5115974;27;20019;-54
2021/01/26 00:12:30;;;;;;;10.77;6.78;;;23.30;48.80;;;;;;5118105;27;20027;-54
2021/01/26 00:14:56;;;;;;;12.82;7.68;;;23.20;48.90;;;;;;5121408;27;20377;-54
2021/01/26 00:17:22;;;;;;;12.50;7.88;;;23.20;48.80;;;;;;5130509;27;20110;-54
2021/01/26 00:19:48;;;;;;;8.80;6.45;;;23.20;48.90;;;;;;5133663;27;20477;-54
2021/01/26 00:22:14;;;;;;;9.15;6.18;;;23.20;48.90;;;;;;5134013;27;20015;-55
2021/01/26 00:24:40;;;;;;;12.25;7.10;;;23.20;48.90;;;;;;5116263;27;20075;-54
2021/01/26 00:27:06;;;;;;;12.48;6.28;;;23.20;48.90;;;;;;5128900;27;20099;-54
2021/01/26 00:29:32;;;;;;;10.27;5.90;;;23.20;48.90;;;;;;5114157;27;20469;-54
2021/01/26 00:31:58;;;;;;;8.27;6.95;;;23.20;48.90;;;;;;5095835;28;20200;-54
2021/01/26 00:34:24;;;;;;;11.02;7.15;;;23.20;49.00;;;;;;5113219;28;20118;-54
2021/01/26 00:36:50;;;;;;;9.85;7.20;;;23.20;49.00;;;;;;5127074;27;20075;-54
2021/01/26 00:39:17;;;;;;;14.18;9.00;;;23.20;49.00;;;;;;5113726;28;20031;-54
2021/01/26 00:41:43;;;;;;;15.15;10.48;;;23.20;49.10;;;;;;5130983;27;20027;-55
2021/01/26 00:44:09;;;;;;;13.75;11.80;;;23.20;49.10;;;;;;5123600;27;20091;-54
2021/01/26 00:46:35;;;;;;;18.23;13.52;;;23.20;49.10;;;;;;5122209;27;20173;-54
2021/01/26 00:49:01;;;;;;;23.55;16.58;;;23.20;49.10;;;;;;5115415;27;20497;-54
2021/01/26 00:51:27;;;;;;;18.42;13.98;;;23.20;49.20;;;;;;5112830;28;20033;-54
2021/01/26 00:53:53;;;;;;;16.67;13.65;;;23.20;49.20;;;;;;5098028;28;20031;-54
2021/01/26 00:56:19;;;;;;;16.83;12.85;;;23.20;49.20;;;;;;5113786;27;20031;-54
2021/01/26 00:58:45;;;;;;;19.88;15.23;;;23.20;49.30;;;;;;5118532;27;20023;-54
2021/01/26 01:01:13;;;;;;;17.45;13.40;;;23.20;49.30;;;;;;5118006;27;20023;-54
2021/01/26 01:03:42;;;;;;;18.58;13.40;;;23.20;49.30;;;;;;5108025;27;20020;-54
2021/01/26 01:06:08;;;;;;;18.73;12.82;;;23.20;49.40;;;;;;5124433;27;20069;-54
2021/01/26 01:08:34;;;;;;;14.95;12.45;;;23.20;49.40;;;;;;5095300;28;20027;-54
2021/01/26 01:11:00;;;;;;;17.90;14.05;;;23.20;49.40;;;;;;5114166;27;20058;-54
2021/01/26 01:13:25;;;;;;;20.15;13.68;;;23.20;49.40;;;;;;5113006;28;20041;-54
2021/01/26 01:15:51;;;;;;;18.95;14.68;;;23.20;49.50;;;;;;5129907;27;20027;-54
2021/01/26 01:18:18;;;;;;;15.80;12.30;;;23.20;49.50;;;;;;5133127;27;20461;-54
2021/01/26 01:20:44;;;;;;;19.55;13.98;;;23.20;49.50;;;;;;5122094;27;20625;-54
2021/01/26 01:23:10;;;;;;;17.77;14.13;;;23.20;50.10;;;;;;5126125;27;20023;-54
2021/01/26 01:25:36;;;;;;;17.52;13.88;;;23.10;49.50;;;;;;5124513;27;20024;-54
2021/01/26 01:28:02;;;;;;;18.13;13.35;;;23.20;49.50;;;;;;5121297;28;20388;-54
2021/01/26 01:30:30;;;;;;;16.23;12.02;;;23.20;49.50;;;;;;5126422;28;20035;-54
2021/01/26 01:32:57;;;;;;;13.77;11.43;;;23.20;49.60;;;;;;5113106;28;20408;-54
2021/01/26 01:35:23;;;;;;;18.30;12.95;;;23.10;49.60;;;;;;5128013;28;20121;-54
2021/01/26 01:37:50;;;;;;;18.63;12.25;;;23.20;49.60;;;;;;5133693;28;20400;-54
2021/01/26 01:40:25;;;;;;;16.85;12.77;;;23.20;49.60;;;;;;5118694;28;20023;-54
2021/01/26 01:42:51;;;;;;;13.00;10.73;;;23.10;49.60;;;;;;5112938;28;20038;-54
2021/01/26 01:45:20;;;;;;;18.05;11.70;;;23.10;49.60;;;;;;5117736;28;20024;-54
2021/01/26 01:47:54;;;;;;;15.20;10.93;;;23.10;49.60;;;;;;5118134;28;20098;-54
2021/01/26 01:50:42;;;;;;;14.95;10.80;;;23.10;49.60;;;;;;5122257;28;20473;-54
2021/01/26 01:53:19;;;;;;;15.63;10.57;;;23.10;49.60;;;;;;5120552;28;20033;-54
2021/01/26 01:55:52;;;;;;;14.85;10.65;;;23.20;49.70;;;;;;5129263;28;20023;-54
2021/01/26 01:58:23;;;;;;;17.65;11.10;;;23.20;49.70;;;;;;5114520;28;20050;-54
2021/01/26 02:00:53;;;;;;;14.38;10.15;;;23.20;49.70;;;;;;5116758;28;20031;-54
2021/01/26 02:03:25;;;;;;;14.85;11.73;;;23.20;49.70;;;;;;5120317;28;20058;-54
2021/01/26 02:05:54;;;;;;;17.05;11.35;;;23.10;49.70;;;;;;5111891;28;20109;-54
2021/01/26 02:08:28;;;;;;;15.20;10.45;;;23.20;49.70;;;;;;5113452;28;20157;-54
2021/01/26 02:10:54;;;;;;;15.90;11.05;;;23.10;49.60;;;;;;5123758;28;20450;-54
2021/01/26 02:13:20;;;;;;;14.15;10.27;;;23.20;49.70;;;;;;5112273;28;20020;-54
2021/01/26 02:15:46;;;;;;;13.80;10.57;;;23.10;49.60;;;;;;5128339;28;20448;-54
2021/01/26 02:18:40;;;;;;;14.68;9.80;;;23.20;49.70;;;;;;5132627;28;20031;-55
2021/01/26 02:21:09;;;;;;;16.40;10.85;;;23.10;49.70;;;;;;5084094;28;20036;-53
2021/01/26 02:24:29;;;;;;;11.30;9.20;;;23.10;50.20;;;;;;5127173;28;20034;-53
2021/01/26 02:27:10;;;;;;;12.40;8.80;;;23.10;49.60;;;;;;5130187;28;20072;-54
2021/01/26 02:29:47;;;;;;;11.98;8.50;;;23.10;49.50;;;;;;5126518;27;20077;-54
2021/01/26 02:32:39;;;;;;;9.73;8.73;;;23.10;49.50;;;;;;5112605;28;20028;-54
2021/01/26 02:35:39;;;;;;;10.73;8.32;;;23.10;49.50;;;;;;5090120;27;20056;-54
2021/01/26 02:38:43;;;;;;;12.00;8.38;;;23.10;49.50;;;;;;5134622;27;20110;-54
2021/01/26 02:41:23;;;;;;;9.73;8.23;;;23.10;49.50;;;;;;5136064;27;20020;-55
2021/01/26 02:44:07;;;;;;;;;;;23.10;49.40;;;;;;5131079;27;20034;-54
2021/01/26 02:46:43;;;;;;;9.65;7.70;;;23.10;49.50;;;;;;5115062;28;20385;-54
2021/01/26 02:49:18;;;;;;;8.23;6.05;;;23.20;49.80;;;;;;5115145;27;20063;-54
2021/01/26 02:52:05;;;;;;;8.40;5.85;;;23.10;49.10;;;;;;5136212;27;20039;-54
2021/01/26 02:54:51;;;;;;;6.90;5.75;;;23.10;49.10;;;;;;5116452;27;20050;-54
2021/01/26 02:57:25;;;;;;;6.47;5.07;;;23.10;49.10;;;;;;5121247;27;20027;-55
2021/01/26 03:00:10;;;;;;;8.10;4.82;;;23.10;49.10;;;;;;5123142;27;20089;-55
2021/01/26 03:02:56;;;;;;;7.35;4.40;;;23.10;49.10;;;;;;5116925;27;20027;-54
2021/01/26 03:05:30;;;;;;;5.63;4.28;;;23.10;49.10;;;;;;5119335;27;20031;-54
2021/01/26 03:08:03;;;;;;;6.10;3.47;;;23.10;48.90;;;;;;5135902;27;20106;-54
2021/01/26 03:10:37;;;;;;;5.80;3.67;;;23.10;48.80;;;;;;5130646;27;20042;-54
2021/01/26 03:13:08;;;;;;;5.90;3.30;;;23.00;48.80;;;;;;5115213;28;20026;-54
2021/01/26 03:15:54;;;;;;;3.50;2.92;;;23.10;48.80;;;;;;5129752;27;20034;-55
2021/01/26 03:18:25;;;;;;;6.40;4.13;;;23.00;48.80;;;;;;5116704;27;20036;-54
2021/01/26 03:20:55;;;;;;;6.38;3.40;;;23.10;48.80;;;;;;5131115;27;20072;-54
2021/01/26 03:23:36;;;;;;;4.22;2.97;;;23.10;48.80;;;;;;5127798;27;20023;-55
2021/01/26 03:26:05;;;;;;;4.75;3.08;;;23.00;48.80;;;;;;5115684;27;20042;-54
2021/01/26 03:28:33;;;;;;;5.72;2.95;;;23.00;48.70;;;;;;5132074;27;20547;-54
2021/01/26 03:31:00;;;;;;;3.58;2.70;;;23.10;48.80;;;;;;5115446;28;20031;-54
2021/01/26 03:33:35;;;;;;;5.47;2.60;;;23.00;48.70;;;;;;5135381;27;20031;-54
2021/01/26 03:36:03;;;;;;;5.30;2.70;;;23.00;48.60;;;;;;5101037;28;20046;-54
2021/01/26 03:38:31;;;;;;;3.65;2.40;;;23.00;48.70;;;;;;5097925;28;20400;-54
2021/01/26 03:41:01;;;;;;;3.47;1.90;;;23.00;48.60;;;;;;5117511;27;20069;-54
2021/01/26 03:43:27;;;;;;;6.43;2.45;;;23.00;48.50;;;;;;5116890;27;20034;-55
2021/01/26 03:46:15;;;;;;;3.40;1.98;;;23.00;48.50;;;;;;5129927;27;20515;-54
2021/01/26 03:49:19;;;;;;;3.80;1.92;;;23.00;48.50;;;;;;5113825;28;20031;-54
2021/01/26 03:52:21;;;;;;;3.78;1.98;;;23.00;48.50;;;;;;5119568;27;20021;-54
2021/01/26 03:55:14;;;;;;;4.97;2.13;;;23.00;48.40;;;;;;5112737;27;20019;-54
2021/01/26 03:58:29;;;;;;;5.32;2.30;;;23.00;48.40;;;;;;5126729;27;20019;-54
2021/01/26 04:01:00;;;;;;;4.03;2.17;;;23.00;48.50;;;;;;5018036;28;20069;-54
2021/01/26 04:03:55;;;;;;;4.53;2.10;;;23.00;48.40;;;;;;5031119;28;20083;-54
2021/01/26 04:06:25;;;;;;;6.82;2.65;;;22.90;48.50;;;;;;5021201;28;20444;-54
2021/01/26 04:08:55;;;;;;;3.65;1.95;;;22.90;48.40;;;;;;5012047;28;20026;-54
2021/01/26 04:11:33;;;;;;;4.15;2.00;;;22.90;48.50;;;;;;5016403;28;20034;-54
2021/01/26 04:14:05;;;;;;;4.38;2.50;;;23.00;48.60;;;;;;5012441;28;20041;-54
2021/01/26 04:16:36;;;;;;;4.07;2.30;;;22.90;48.50;;;;;;5005183;28;20068;-55
2021/01/26 04:19:04;;;;;;;5.30;2.17;;;22.90;48.50;;;;;;5011782;28;20034;-55
2021/01/26 04:21:32;;;;;;;5.05;2.30;;;22.90;48.50;;;;;;5011846;28;20044;-55
2021/01/26 04:23:59;;;;;;;4.75;2.15;;;22.90;48.50;;;;;;5012071;28;20046;-54
2021/01/26 04:26:28;;;;;;;5.38;2.33;;;22.90;48.70;;;;;;5016206;28;20033;-54
2021/01/26 04:28:54;;;;;;;5.38;2.22;;;22.90;48.60;;;;;;5030451;28;20436;-55
2021/01/26 04:31:21;;;;;;;4.07;1.90;;;22.90;48.60;;;;;;5009876;28;20065;-54
2021/01/26 04:33:49;;;;;;;5.50;2.22;;;22.90;48.70;;;;;;5030774;28;20033;-54
2021/01/26 04:36:19;;;;;;;5.28;2.10;;;23.00;48.70;;;;;;5024684;27;20407;-54
2021/01/26 04:38:45;;;;;;;6.82;2.63;;;22.90;48.60;;;;;;5114101;27;20062;-54
2021/01/26 04:41:30;;;;;;;5.18;2.53;;;22.90;48.70;;;;;;5133792;27;20063;-54
2021/01/26 04:44:04;;;;;;;6.85;2.13;;;22.90;48.70;;;;;;5121574;27;20028;-54
2021/01/26 04:46:33;;;;;;;3.38;1.95;;;23.00;48.70;;;;;;5113823;28;20070;-54
2021/01/26 04:49:11;;;;;;;6.78;2.38;;;22.90;48.60;;;;;;5120941;27;20027;-54
2021/01/26 04:52:31;;;;;;;5.03;2.08;;;22.90;48.70;;;;;;5117846;27;20359;-54
2021/01/26 04:55:23;;;;;;;5.35;2.25;;;22.90;48.70;;;;;;5006367;28;20105;-54
2021/01/26 04:57:49;;;;;;;4.05;2.03;;;22.90;48.60;;;;;;4994859;28;20483;-53
2021/01/26 05:00:24;;;;;;;7.80;2.35;;;22.90;48.70;;;;;;5021119;28;20136;-53
2021/01/26 05:03:14;;;;;;;5.78;2.03;;;22.90;48.70;;;;;;5010800;28;20158;-54
2021/01/26 05:05:45;;;;;;;5.68;2.42;;;22.90;48.70;;;;;;5020862;28;20101;-54
2021/01/26 05:08:19;;;;;;;5.57;2.03;;;22.90;48.70;;;;;;5030454;28;20442;-54
2021/01/26 05:10:53;;;;;;;9.70;2.50;;;22.90;48.70;;;;;;5016784;28;20075;-54
2021/01/26 05:13:26;;;;;;;3.72;2.10;;;22.90;48.70;;;;;;5010521;28;20129;-54
2021/01/26 05:16:24;;;;;;;5.65;2.28;;;22.90;48.70;;;;;;5012410;28;20050;-54
2021/01/26 05:19:22;;;;;;;9.32;3.15;;;22.90;48.80;;;;;;4988133;28;20034;-54
2021/01/26 05:22:07;;;;;;;5.50;2.92;;;22.90;48.70;;;;;;5005843;28;20065;-54
2021/01/26 05:24:46;;;;;;;7.90;3.33;;;22.90;48.70;;;;;;5039028;28;20041;-54
2021/01/26 05:27:12;;;;;;;8.25;3.25;;;22.90;48.70;;;;;;5133177;27;20114;-54
2021/01/26 05:29:38;;;;;;;6.30;3.03;;;22.90;48.70;;;;;;5127188;28;20512;-53
2021/01/26 05:32:06;;;;;;;7.63;3.30;;;22.90;48.70;;;;;;5122169;28;20027;-56
2021/01/26 05:34:34;;;;;;;6.85;2.90;;;22.90;48.80;;;;;;5119734;28;20088;-55
2021/01/26 05:37:04;;;;;;;4.40;2.15;;;22.90;48.80;;;;;;5112276;28;20464;-56
2021/01/26 05:39:51;;;;;;;8.00;2.60;;;22.90;48.80;;;;;;5116152;28;20459;-54
2021/01/26 05:42:19;;;;;;;5.53;2.53;;;22.90;48.70;;;;;;5103289;28;20453;-54
2021/01/26 05:44:58;;;;;;;5.80;2.35;;;22.90;48.80;;;;;;5118454;28;20032;-54
2021/01/26 05:47:34;;;;;;;4.03;2.03;;;22.90;48.70;;;;;;5123795;28;20034;-55
2021/01/26 05:50:00;;;;;;;5.18;2.13;;;22.90;49.30;;;;;;5132132;28;20050;-54
2021/01/26 05:52:39;;;;;;;4.95;2.00;;;22.90;48.70;;;;;;5129111;28;20544;-54
2021/01/26 05:55:20;;;;;;;4.53;2.10;;;22.90;48.70;;;;;;5112806;28;20026;-54
2021/01/26 05:57:49;;;;;;;5.95;2.13;;;22.90;48.70;;;;;;5107523;28;20019;-56
2021/01/26 06:00:23;;;;;;;3.67;2.15;;;22.90;48.70;;;;;;5115676;28;20739;-57
2021/01/26 06:03:11;;;;;;;5.60;2.35;;;22.90;48.70;;;;;;5118606;28;20205;-54
2021/01/26 06:05:39;;;;;;;3.53;1.83;;;22.80;48.70;;;;;;5131800;28;20057;-54
2021/01/26 06:08:14;;;;;;;6.10;2.13;;;22.90;48.70;;;;;;5115521;28;20077;-54
2021/01/26 06:10:42;;;;;;;6.75;1.98;;;22.80;48.70;;;;;;5116186;27;20110;-55
2021/01/26 06:13:10;;;;;;;4.85;2.28;;;22.90;48.80;;;;;;5128080;27;20036;-55
2021/01/26 06:15:39;;;;;;;2.80;1.77;;;22.80;48.70;;;;;;5116483;28;20028;-54
2021/01/26 06:18:13;;;;;;;3.95;1.67;;;22.80;48.80;;;;;;5116649;28;20477;-56
2021/01/26 06:20:39;;;;;;;3.35;2.00;;;22.80;48.90;;;;;;5116860;28;20408;-55
2021/01/26 06:23:28;;;;;;;4.63;2.38;;;22.80;49.00;;;;;;5116917;28;20027;-54
2021/01/26 06:25:58;;;;;;;4.70;2.45;;;22.80;49.00;;;;;;5116663;28;20102;-54
2021/01/26 06:28:26;;;;;;;6.10;2.35;;;22.80;49.00;;;;;;5098411;28;20028;-56
2021/01/26 06:31:13;;;;;;;6.47;2.47;;;22.80;49.00;;;;;;5116784;28;20412;-56
2021/01/26 06:33:57;;;;;;;3.85;1.90;;;22.80;49.10;;;;;;5116629;28;20428;-56
2021/01/26 06:36:51;;;;;;;5.03;2.03;;;22.80;49.10;;;;;;5116353;28;20123;-55
2021/01/26 06:39:26;;;;;;;6.13;2.55;;;22.80;49.20;;;;;;5095762;28;20107;-55
2021/01/26 06:42:06;;;;;;;6.70;2.35;;;22.80;49.20;;;;;;5095865;28;20051;-55
2021/01/26 06:44:43;;;;;;;5.05;2.30;;;22.80;49.20;;;;;;5108238;28;20039;-56
2021/01/26 06:47:22;;;;;;;4.75;2.25;;;22.80;49.30;;;;;;5116376;28;20047;-56
2021/01/26 06:50:12;;;;;;;4.70;1.92;;;22.80;49.30;;;;;;5115897;28;20063;-56
2021/01/26 06:52:54;;;;;;;4.90;2.07;;;22.80;49.30;;;;;;5115527;28;20045;-55
2021/01/26 06:55:45;;;;;;;5.32;2.58;;;22.80;49.30;;;;;;5115861;28;20279;-55
2021/01/26 06:58:55;;;;;;;2.95;1.98;;;22.80;49.40;;;;;;5114849;28;20081;-55
2021/01/26 07:01:43;;;;;;;10.20;7.65;;;22.80;49.40;;;;;;5096940;28;20118;-53
2021/01/26 07:04:12;;;;;;;33.45;29.35;;;22.80;49.30;;;;;;5097014;28;20508;-54
2021/01/26 07:07:22;;;;;;;51.80;46.38;;;22.80;49.30;;;;;;5092521;28;20051;-53
2021/01/26 07:09:48;;;;;;;71.82;64.25;;;22.80;49.30;;;;;;5105688;27;20421;-53
2021/01/26 07:12:50;;;;;;;84.22;75.22;;;22.80;49.30;;;;;;5115670;28;20110;-53
2021/01/26 07:15:54;;;;;;;68.88;61.85;;;22.70;49.40;;;;;;5118940;27;20023;-53
2021/01/26 07:18:44;;;;;;;57.78;51.53;;;22.80;49.50;;;;;;5136235;27;20023;-52
2021/01/26 07:21:24;;;;;;;66.75;59.90;;;22.80;49.50;;;;;;5131615;27;20028;-53
2021/01/26 07:24:07;;;;;;;106.07;94.85;;;22.70;49.40;;;;;;5115156;28;20031;-56
2021/01/26 07:26:57;;;;;;;93.68;82.10;;;22.70;49.50;;;;;;5114963;28;20030;-53
2021/01/26 07:29:35;;;;;;;65.35;58.35;;;22.70;49.50;;;;;;5119710;27;20076;-50
2021/01/26 07:32:16;;;;;;;35.15;31.35;;;22.70;49.50;;;;;;5120914;27;20015;-52
2021/01/26 07:35:09;;;;;;;17.85;14.32;;;22.70;49.50;;;;;;5121365;27;20119;-52
2021/01/26 07:37:54;;;;;;;10.02;8.25;;;22.70;49.70;;;;;;5090717;27;20130;-52
2021/01/26 07:40:23;;;;;;;4.72;3.80;;;22.70;49.60;;;;;;5118031;27;20480;-51
2021/01/26 07:42:55;;;;;;;5.07;2.95;;;22.70;49.60;;;;;;5116324;27;20020;-51
2021/01/26 07:45:28;;;;;;;6.43;1.77;;;22.70;49.70;;;;;;5134705;27;20099;-50
2021/01/26 07:48:10;;;;;;;5.13;1.83;;;22.70;49.80;;;;;;5135606;27;20020;-50
2021/01/26 07:50:39;;;;;;;2.90;1.38;;;22.70;49.90;;;;;;5135332;27;20088;-50
2021/01/26 07:53:43;;;;;;;2.10;1.38;;;22.60;49.90;;;;;;5135424;27;20389;-49
2021/01/26 07:56:21;;;;;;;3.85;1.20;;;22.60;50.00;;;;;;5129828;27;20042;-52
2021/01/26 07:58:49;;;;;;;2.35;1.40;;;22.60;50.10;;;;;;5134164;27;20026;-52
2021/01/26 08:01:19;;;;;;;4.75;1.50;;;22.60;50.10;;;;;;5117743;27;20504;-50
2021/01/26 08:03:46;;;;;;;2.38;1.40;;;22.60;50.20;;;;;;5113968;28;20473;-50
2021/01/26 08:06:37;;;;;;;2.88;1.33;;;22.60;50.10;;;;;;5114475;28;20027;-50
2021/01/26 08:09:10;;;;;;;2.67;1.15;;;22.60;50.20;;;;;;5114423;28;20027;-50
2021/01/26 08:11:57;;;;;;;1.60;1.05;;;22.60;50.30;;;;;;5114718;28;20031;-50
2021/01/26 08:14:34;;;;;;;2.78;1.00;;;22.60;50.30;;;;;;5114832;28;20466;-49
2021/01/26 08:17:04;;;;;;;394.83;353.98;;;22.60;50.30;;;;;;5102231;28;20028;-55
2021/01/26 08:19:48;;;;;;;224.27;201.23;;;22.60;50.50;;;;;;5094091;28;20043;-55
2021/01/26 08:22:18;;;;;;;29.00;24.98;;;22.50;50.80;;;;;;5093512;28;20394;-54
2021/01/26 08:24:47;;;;;;;10.90;9.75;;;22.50;50.80;;;;;;5110776;28;20417;-57
2021/01/26 08:27:47;;;;;;;4.85;3.00;;;22.50;50.70;;;;;;5113962;28;20020;-54
2021/01/26 08:30:21;;;;;;;2.90;1.38;;;22.40;50.90;;;;;;5113756;28;20027;-53
2021/01/26 08:33:11;;;;;;;3.83;1.15;;;22.40;51.20;;;;;;5113828;28;20097;-56
2021/01/26 08:35:47;;;;;;;5.32;1.30;;;22.30;51.10;;;;;;5114195;28;20024;-57
2021/01/26 08:38:46;;;;;;;4.72;1.15;;;22.30;51.20;;;;;;5093525;28;20032;-56
2021/01/26 08:41:30;;;;;;;6.03;1.40;;;22.30;51.10;;;;;;5107889;28;20031;-55
2021/01/26 08:43:56;;;;;;;3.92;1.65;;;22.30;51.10;;;;;;5114008;28;20036;-55
2021/01/26 08:46:40;;;;;;;3.85;1.25;;;22.30;51.30;;;;;;5088982;28;20028;-55
2021/01/26 08:49:20;;;;;;;5.75;1.13;;;22.30;51.50;;;;;;5093700;28;20024;-55
2021/01/26 08:51:46;;;;;;;5.97;1.80;;;22.30;51.70;;;;;;5104146;28;20016;-62
2021/01/26 08:54:44;;;;;;;1.98;1.00;;;22.30;51.70;;;;;;5081734;28;20035;-56
2021/01/26 08:57:28;;;;;;;2.05;0.98;;;22.30;51.90;;;;;;5073417;28;20386;-61
2021/01/26 09:00:17;;;;;;;2.45;0.95;;;22.30;51.90;;;;;;5088404;28;20150;-57
2021/01/26 09:02:50;;;;;;;4.13;2.33;;;22.20;51.80;;;;;;5079766;28;20051;-53
2021/01/26 09:05:34;;;;;;;3.83;3.03;;;22.30;52.00;;;;;;5093082;28;20036;-53
2021/01/26 09:08:07;;;;;;;5.45;3.58;;;22.30;52.00;;;;;;5074973;28;20027;-54
2021/01/26 09:10:47;;;;;;;1.92;1.73;;;22.30;52.00;;;;;;5093133;28;20031;-58
2021/01/26 09:13:25;;;;;;;1.73;0.90;;;22.30;52.40;;;;;;5075527;28;20028;-56
2021/01/26 09:16:04;;;;;;;3.03;1.27;;;22.30;52.20;;;;;;5085096;28;20028;-54
2021/01/26 09:18:31;;;;;;;2.38;1.00;;;22.40;52.30;;;;;;5112804;28;20058;-55
2021/01/26 09:21:05;;;;;;;1.33;0.80;;;22.30;52.30;;;;;;5111315;28;20050;-55
2021/01/26 09:23:33;;;;;;;1.40;0.80;;;22.40;52.30;;;;;;5106924;28;20111;-55
2021/01/26 09:25:59;;;;;;;1.88;0.50;;;22.40;52.30;;;;;;5092859;28;20553;-55
2021/01/26 09:28:37;;;;;;;3.05;0.75;;;22.40;52.30;;;;;;5093155;28;20132;-56
2021/01/26 09:31:04;;;;;;;1.95;0.60;;;22.40;52.30;;;;;;5092373;28;20091;-54
2021/01/26 09:33:31;;;;;;;3.25;0.80;;;22.40;52.30;;;;;;5081129;28;20032;-58
2021/01/26 09:36:00;;;;;;;1.10;0.68;;;22.50;52.20;;;;;;5064090;28;20362;-53
2021/01/26 09:38:34;;;;;;;1.77;0.70;;;22.50;52.10;;;;;;5091645;28;20036;-54
2021/01/26 09:41:06;;;;;;;5.10;4.05;;;22.50;52.10;;;;;;5092693;28;20036;-53
2021/01/26 09:43:32;;;;;;;31.77;27.63;;;22.60;52.30;;;;;;5092439;28;20058;-55
2021/01/26 09:46:06;;;;;;;19.30;14.93;;;22.60;52.00;;;;;;5079377;28;20060;-57
2021/01/26 09:48:38;;;;;;;9.32;7.00;;;22.70;52.10;;;;;;5076734;28;20509;-56
2021/01/26 09:51:24;;;;;;;3.97;3.53;;;22.70;52.00;;;;;;5076501;28;20052;-53
2021/01/26 09:54:00;;;;;;;3.13;2.83;;;22.80;52.00;;;;;;5093713;28;20028;-56
2021/01/26 09:56:26;;;;;;;3.50;2.20;;;22.80;52.00;;;;;;5095865;28;20036;-53
2021/01/26 09:58:54;;;;;;;38.55;34.50;;;23.00;52.00;;;;;;5095925;28;20377;-54
2021/01/26 10:01:21;;;;;;;6.90;6.22;;;22.80;51.80;;;;;;5096146;28;20040;-56
2021/01/26 10:03:52;;;;;;;7.28;5.68;;;22.90;52.10;;;;;;5080820;28;20520;-56
2021/01/26 10:06:19;;;;;;;6.30;4.68;;;23.00;52.10;;;;;;5078352;28;20493;-54
2021/01/26 10:08:45;;;;;;;8.40;3.45;;;23.00;51.90;;;;;;5096365;28;20046;-54
2021/01/26 10:11:25;;;;;;;3.10;2.03;;;23.00;51.80;;;;;;5078299;28;20370;-54
2021/01/26 10:14:16;;;;;;;2.30;1.52;;;23.10;51.80;;;;;;5095465;28;20087;-54
2021/01/26 10:16:44;;;;;;;;;;;23.10;51.70;;;;;;5095917;28;20533;-54
2021/01/26 10:19:32;;;;;;;2.97;0.90;;;23.10;51.60;;;;;;5077790;28;19949;-58
2021/01/26 10:22:25;;;;;;;1.95;0.60;;;23.20;51.40;;;;;;5095886;28;20024;-54
2021/01/26 10:24:51;;;;;;;1.50;0.90;;;23.20;51.40;;;;;;5092465;28;20539;-54
2021/01/26 10:27:23;;;;;;;7.05;1.65;;;23.20;51.30;;;;;;5096090;28;20051;-54
2021/01/26 10:30:08;;;;;;;11.45;1.80;;;23.30;51.60;;;;;;5096020;28;20016;-53
2021/01/26 10:32:48;;;;;;;2.72;1.40;;;23.30;52.10;;;;;;5095833;28;20485;-52
2021/01/26 10:35:32;;;;;;;7.50;6.15;;;23.40;51.30;;;;;;5115375;28;20042;-51
2021/01/26 10:38:25;;;;;;;7.25;4.85;;;23.50;51.10;;;;;;5128237;27;20480;-56
2021/01/26 10:41:32;;;;;;;5.20;4.20;;;23.60;51.00;;;;;;5135701;27;20046;-57
2021/01/26 10:44:12;;;;;;;4.38;3.97;;;23.70;50.90;;;;;;5033099;28;20034;-55
2021/01/26 10:47:15;;;;;;;19.20;17.23;;;23.80;50.60;;;;;;5028057;28;20490;-57
2021/01/26 10:50:26;;;;;;;20.42;18.25;;;23.90;50.40;;;;;;5011720;28;20117;-55
2021/01/26 10:53:33;;;;;;;;;;;24.00;50.30;;;;;;5011276;28;20503;-58
2021/01/26 10:56:24;;;;;;;11.27;10.18;;;24.10;50.60;;;;;;5001090;28;20413;-64
2021/01/26 10:59:17;;;;;;;9.45;8.25;;;24.30;50.00;;;;;;5012451;28;20045;-56
2021/01/26 11:02:12;;;;;;;8.52;7.63;;;24.30;49.70;;;;;;5018582;28;20116;-55
2021/01/26 11:32:55;;;;;;;6.80;3.55;;;24.90;48.40;;;;;;5115192;28;20055;-54
2021/01/26 11:35:24;;;;;;;4.72;3.22;;;24.90;48.30;;;;;;5115197;28;20028;-53
2021/01/26 11:37:50;;;;;;;3.08;2.78;;;24.90;48.20;;;;;;5115217;28;20011;-54
2021/01/26 11:40:41;;;;;;;2.67;2.00;;;24.90;48.20;;;;;;5115269;28;20050;-53
2021/01/26 11:43:33;;;;;;;5.80;4.43;;;24.90;48.20;;;;;;5114083;28;20055;-54
2021/01/26 11:46:25;;;;;;;16.05;8.98;;;25.00;48.10;;;;;;5114877;28;20527;-53
2021/01/26 11:49:16;;;;;;;11.68;7.75;;;25.10;48.20;;;;;;5115124;28;20031;-53
2021/01/26 11:51:42;;;;;;;8.90;6.05;;;25.20;48.10;;;;;;5096933;28;20023;-54
2021/01/26 11:54:08;;;;;;;10.38;6.03;;;25.30;48.00;;;;;;5096278;28;20032;-54
2021/01/26 11:56:34;;;;;;;7.32;5.60;;;25.40;48.00;;;;;;5114874;28;20085;-54
2021/01/26 11:59:25;;;;;;;9.63;5.78;;;25.50;47.90;;;;;;5094015;28;20046;-54
2021/01/26 12:02:16;;;;;;;8.38;5.45;;;25.60;47.80;;;;;;5094601;28;20385;-54
2021/01/26 12:04:42;;;;;;;7.03;5.10;;;25.80;47.80;;;;;;5093854;28;20036;-55
2021/01/26 12:07:08;;;;;;;8.43;5.32;;;25.90;47.70;;;;;;5125431;27;20486;-55
2021/01/26 12:09:34;;;;;;;7.88;4.70;;;26.00;47.50;;;;;;5115283;27;20051;-55
2021/01/26 12:12:25;;;;;;;6.35;3.78;;;26.10;47.40;;;;;;5134858;27;20050;-55
2021/01/26 12:14:51;;;;;;;7.57;5.30;;;26.20;47.20;;;;;;5133996;27;20071;-55
2021/01/26 12:17:17;;;;;;;10.43;8.75;;;26.30;47.10;;;;;;5134211;27;20034;-56
2021/01/26 12:19:43;;;;;;;16.98;14.57;;;26.40;46.90;;;;;;5133841;27;20496;-56
2021/01/26 12:22:09;;;;;;;19.70;17.60;;;26.50;46.80;;;;;;5116267;27;20027;-56
2021/01/26 12:24:35;;;;;;;17.27;15.15;;;26.60;46.70;;;;;;5134448;27;20057;-56
2021/01/26 12:27:01;;;;;;;17.35;14.70;;;26.70;46.50;;;;;;5134404;27;20460;-53
2021/01/26 12:29:27;;;;;;;18.38;15.18;;;26.80;46.40;;;;;;5134004;27;20406;-56
2021/01/26 12:31:53;;;;;;;10.93;9.77;;;26.80;46.20;;;;;;5145784;27;20441;-56
2021/01/26 12:34:19;;;;;;;6.60;6.00;;;26.90;45.90;;;;;;5140591;27;20035;-56
2021/01/26 12:36:45;;;;;;;15.05;11.82;;;27.00;45.60;;;;;;5134284;27;20031;-56
2021/01/26 12:39:11;;;;;;;19.88;16.40;;;27.10;45.40;;;;;;5114736;27;20030;-56
2021/01/26 12:41:36;;;;;;;29.13;24.02;;;27.20;45.30;;;;;;5112338;27;20029;-56
2021/01/26 12:44:05;;;;;;;16.83;14.57;;;27.20;45.20;;;;;;5114690;27;20038;-56
2021/01/26 12:46:31;;;;;;;13.45;12.15;;;27.30;45.00;;;;;;5098551;27;20035;-55
2021/01/26 12:48:57;;;;;;;13.50;11.05;;;27.40;45.00;;;;;;5111165;27;20501;-55
2021/01/26 12:51:23;;;;;;;13.15;10.95;;;27.50;44.90;;;;;;5129834;27;20050;-55
2021/01/26 12:53:49;;;;;;;10.90;9.02;;;27.60;44.80;;;;;;5115004;27;20030;-55
2021/01/26 12:56:15;;;;;;;11.57;9.40;;;27.60;44.60;;;;;;5111467;27;20483;-55
2021/01/26 12:58:41;;;;;;;9.68;8.68;;;27.70;44.50;;;;;;5133390;27;20800;-55
2021/01/26 13:01:32;;;;;;;9.70;8.80;;;27.70;44.40;;;;;;5119201;27;20049;-55
2021/01/26 13:04:23;;;;;;;10.50;8.63;;;27.80;44.20;;;;;;5133499;27;20154;-56
2021/01/26 13:06:49;;;;;;;8.70;7.85;;;27.90;44.20;;;;;;5097970;27;20117;-55
2021/01/26 13:09:15;;;;;;;8.82;7.68;;;27.90;44.10;;;;;;5133040;27;20506;-55
2021/01/26 13:11:42;;;;;;;10.32;7.90;;;28.00;44.00;;;;;;5114608;27;20471;-55
2021/01/26 13:14:08;;;;;;;12.55;8.25;;;28.00;43.80;;;;;;5114149;27;20019;-55
2021/01/26 13:16:34;;;;;;;10.65;7.63;;;28.10;43.80;;;;;;5114694;27;20031;-55
2021/01/26 13:19:00;;;;;;;8.38;7.53;;;28.10;43.70;;;;;;5132406;27;20058;-56
2021/01/26 13:21:27;;;;;;;8.07;7.22;;;28.20;43.60;;;;;;5131995;27;20529;-56
2021/01/26 13:23:53;;;;;;;7.72;6.95;;;28.30;43.50;;;;;;5114928;28;20075;-56
2021/01/26 13:26:18;;;;;;;7.80;7.00;;;28.30;43.40;;;;;;5113945;27;20027;-55
2021/01/26 13:28:44;;;;;;;8.68;7.18;;;28.40;43.30;;;;;;5113868;28;20038;-55
2021/01/26 13:31:11;;;;;;;9.13;6.97;;;28.40;43.10;;;;;;5129067;27;20035;-54
2021/01/26 13:33:37;;;;;;;7.82;6.57;;;28.50;43.60;;;;;;5097058;28;20079;-55
2021/01/26 13:36:03;;;;;;;9.70;7.13;;;28.60;42.90;;;;;;5131975;28;20104;-55
2021/01/26 13:38:29;;;;;;;6.63;6.05;;;28.70;42.80;;;;;;5113282;28;20045;-56
2021/01/26 13:40:58;;;;;;;6.75;5.85;;;28.70;42.60;;;;;;5131942;28;20027;-55
2021/01/26 13:43:24;;;;;;;7.77;6.47;;;28.80;42.50;;;;;;5132150;28;20034;-55
2021/01/26 13:45:51;;;;;;;6.72;5.95;;;28.90;42.50;;;;;;5119144;28;20463;-56
2021/01/26 13:48:16;;;;;;;7.35;5.50;;;28.90;42.30;;;;;;5131914;28;20064;-55
2021/01/26 13:50:43;;;;;;;6.18;5.57;;;29.00;42.20;;;;;;5131579;28;20023;-55